createdAt,value
2022-10-05T00:00:33.034Z,2.90
2022-10-05T00:01:36.303Z,2.50
2022-10-05T00:02:38.223Z,2.53
2022-10-05T00:03:41.332Z,2.33
2022-10-05T00:04:44.654Z,2.55
2022-10-05T00:05:47.377Z,2.50
2022-10-05T00:07:14.320Z,2.65
2022-10-05T00:08:25.352Z,2.30
2022-10-05T00:09:33.364Z,2.55
2022-10-05T00:10:35.097Z,2.72
2022-10-05T00:11:37.337Z,2.42
2022-10-05T00:12:39.624Z,2.15
2022-10-05T00:13:41.836Z,2.35
2022-10-05T00:14:45.260Z,2.50
2022-10-05T00:15:48.749Z,2.30
2022-10-05T00:16:50.920Z,2.38
2022-10-05T00:17:53.610Z,2.30
2022-10-05T00:18:55.910Z,2.35
2022-10-05T00:19:57.856Z,2.60
2022-10-05T00:21:00.184Z,2.70
2022-10-05T00:22:17.306Z,2.30
2022-10-05T00:23:29.892Z,1.95
2022-10-05T00:24:31.726Z,2.10
2022-10-05T00:25:33.546Z,2.47
2022-10-05T00:26:35.852Z,2.40
2022-10-05T00:27:39.035Z,2.45
2022-10-05T00:28:41.411Z,2.60
2022-10-05T00:29:45.261Z,2.40
2022-10-05T00:30:47.589Z,2.60
2022-10-05T00:31:49.924Z,2.60
2022-10-05T00:32:56.011Z,2.85
2022-10-05T00:34:00.927Z,3.17
2022-10-05T00:35:04.443Z,3.10
2022-10-05T00:36:09.065Z,3.22
2022-10-05T00:37:14.462Z,3.45
2022-10-05T00:38:25.873Z,3.58
2022-10-05T00:39:40.349Z,3.45
2022-10-05T00:40:56.573Z,3.58
2022-10-05T00:42:25.734Z,3.42
2022-10-05T00:43:52.757Z,3.97
2022-10-05T00:45:26.724Z,3.70
2022-10-05T00:46:50.598Z,3.03
2022-10-05T00:48:05.722Z,3.10
2022-10-05T00:49:24.460Z,3.13
2022-10-05T00:50:53.855Z,2.50
2022-10-05T00:52:23.152Z,3.08
2022-10-05T00:54:31.355Z,2.85
2022-10-05T00:55:38.952Z,2.80
2022-10-05T00:57:09.499Z,3.28
2022-10-05T00:58:36.102Z,2.63
2022-10-05T00:59:52.710Z,2.78
2022-10-05T01:01:11.441Z,2.80
2022-10-05T01:02:35.888Z,3.50
2022-10-05T01:04:10.777Z,2.50
2022-10-05T01:05:55.624Z,2.58
2022-10-05T01:07:07.348Z,2.38
2022-10-05T01:08:21.617Z,2.80
2022-10-05T01:09:35.104Z,2.67
2022-10-05T01:10:36.998Z,2.70
2022-10-05T01:12:02.253Z,3.67
2022-10-05T01:13:17.347Z,2.58
2022-10-05T01:14:48.844Z,2.40
2022-10-05T01:16:25.247Z,2.55
2022-10-05T01:17:54.402Z,2.30
2022-10-05T01:19:22.487Z,2.35
2022-10-05T01:20:39.863Z,2.22
2022-10-05T01:21:57.622Z,2.10
2022-10-05T01:23:37.817Z,2.55
2022-10-05T01:25:02.889Z,2.63
2022-10-05T01:26:10.547Z,1.95
2022-10-05T01:27:29.863Z,2.30
2022-10-05T01:28:44.999Z,2.53
2022-10-05T01:29:54.737Z,2.53
2022-10-05T01:32:49.104Z,2.50
2022-10-05T01:34:11.655Z,2.00
2022-10-05T01:35:42.221Z,2.45
2022-10-05T01:36:49.373Z,1.77
2022-10-05T01:37:55.820Z,2.05
2022-10-05T01:39:10.843Z,1.70
2022-10-05T01:40:31.522Z,2.17
2022-10-05T01:41:42.700Z,2.30
2022-10-05T01:44:21.203Z,1.80
2022-10-05T01:45:39.088Z,2.10
2022-10-05T01:46:55.787Z,2.33
2022-10-05T01:48:09.333Z,2.80
2022-10-05T01:49:38.983Z,2.33
2022-10-05T01:51:15.881Z,2.15
2022-10-05T01:52:29.026Z,2.20
2022-10-05T01:54:15.486Z,2.33
2022-10-05T01:55:51.952Z,2.30
2022-10-05T01:57:33.584Z,1.95
2022-10-05T01:58:46.335Z,2.28
2022-10-05T02:00:09.311Z,2.22
2022-10-05T02:01:44.058Z,2.08
2022-10-05T02:02:54.553Z,1.95
2022-10-05T02:04:25.593Z,2.10
2022-10-05T02:05:53.016Z,2.35
2022-10-05T02:06:56.425Z,2.35
2022-10-05T02:08:04.086Z,2.75
2022-10-05T02:09:26.282Z,4.80
2022-10-05T02:10:57.430Z,2.90
2022-10-05T02:12:07.766Z,2.83
2022-10-05T02:13:17.321Z,2.65
2022-10-05T02:14:26.241Z,2.17
2022-10-05T02:15:37.046Z,2.80
2022-10-05T02:16:44.870Z,2.35
2022-10-05T02:17:57.249Z,2.38
2022-10-05T02:19:22.403Z,2.60
2022-10-05T02:20:34.998Z,2.60
2022-10-05T02:21:39.734Z,2.53
2022-10-05T02:22:46.838Z,2.80
2022-10-05T02:23:54.351Z,2.78
2022-10-05T02:25:23.047Z,2.60
2022-10-05T02:26:29.293Z,2.55
2022-10-05T02:27:41.776Z,2.50
2022-10-05T02:29:00.552Z,2.05
2022-10-05T02:30:08.833Z,2.00
2022-10-05T02:31:23.766Z,2.30
2022-10-05T02:32:37.420Z,3.22
2022-10-05T02:33:40.925Z,2.92
2022-10-05T02:34:46.932Z,3.03
2022-10-05T02:36:02.380Z,3.20
2022-10-05T02:37:21.667Z,2.63
2022-10-05T02:39:15.329Z,2.28
2022-10-05T02:40:36.823Z,1.85
2022-10-05T02:41:44.628Z,1.95
2022-10-05T02:43:01.541Z,2.03
2022-10-05T02:44:34.731Z,2.20
2022-10-05T02:45:45.356Z,1.70
2022-10-05T02:46:58.955Z,1.98
2022-10-05T02:48:13.499Z,1.90
2022-10-05T02:49:26.641Z,2.33
2022-10-05T02:50:51.242Z,2.00
2022-10-05T02:52:17.106Z,2.28
2022-10-05T02:53:25.267Z,1.98
2022-10-05T02:54:58.849Z,2.00
2022-10-05T02:56:15.683Z,2.13
2022-10-05T02:57:29.308Z,2.25
2022-10-05T02:59:01.195Z,2.35
2022-10-05T03:00:22.329Z,2.35
2022-10-05T03:01:31.880Z,2.25
2022-10-05T03:03:06.495Z,2.47
2022-10-05T03:04:31.099Z,2.20
2022-10-05T03:05:46.580Z,1.88
2022-10-05T03:07:03.446Z,2.10
2022-10-05T03:08:17.937Z,1.90
2022-10-05T03:09:25.783Z,2.00
2022-10-05T03:10:37.117Z,2.10
2022-10-05T03:13:02.452Z,1.98
2022-10-05T03:14:49.398Z,2.42
2022-10-05T03:16:03.738Z,2.13
2022-10-05T03:17:29.013Z,1.83
2022-10-05T03:18:36.930Z,2.13
2022-10-05T03:20:15.982Z,2.08
2022-10-05T03:21:42.244Z,1.85
2022-10-05T03:22:53.788Z,2.58
2022-10-05T03:24:23.187Z,2.13
2022-10-05T03:25:43.604Z,2.00
2022-10-05T03:27:24.415Z,2.40
2022-10-05T03:28:54.662Z,2.30
2022-10-05T03:30:25.955Z,2.95
2022-10-05T03:31:48.747Z,2.13
2022-10-05T03:33:12.905Z,2.40
2022-10-05T03:34:27.467Z,2.10
2022-10-05T03:36:02.341Z,2.50
2022-10-05T03:37:16.904Z,3.20
2022-10-05T03:38:46.061Z,2.90
2022-10-05T03:40:27.418Z,2.47
2022-10-05T03:41:53.566Z,3.80
2022-10-05T03:43:30.476Z,2.40
2022-10-05T03:44:55.924Z,2.80
2022-10-05T03:46:22.430Z,2.38
2022-10-05T03:47:42.856Z,2.22
2022-10-05T03:49:04.954Z,2.55
2022-10-05T03:50:27.016Z,2.42
2022-10-05T03:51:43.269Z,2.35
2022-10-05T03:52:56.087Z,2.80
2022-10-05T03:54:33.686Z,2.30
2022-10-05T03:55:48.604Z,3.42
2022-10-05T03:56:55.718Z,2.53
2022-10-05T03:58:03.359Z,2.53
2022-10-05T03:59:17.473Z,3.20
2022-10-05T04:00:34.416Z,2.50
2022-10-05T04:01:48.609Z,2.67
2022-10-05T04:02:58.251Z,2.70
2022-10-05T04:04:04.559Z,2.53
2022-10-05T04:05:09.394Z,2.95
2022-10-05T04:06:18.208Z,2.70
2022-10-05T04:07:50.432Z,2.78
2022-10-05T04:09:24.178Z,2.40
2022-10-05T04:10:51.027Z,2.42
2022-10-05T04:12:33.533Z,2.70
2022-10-05T04:14:02.553Z,3.33
2022-10-05T04:15:41.146Z,3.05
2022-10-05T04:16:53.093Z,2.95
2022-10-05T04:18:03.754Z,3.50
2022-10-05T04:19:35.495Z,3.72
2022-10-05T04:22:03.762Z,3.90
2022-10-05T04:23:21.565Z,4.30
2022-10-05T04:24:53.160Z,4.22
2022-10-05T04:26:02.600Z,4.85
2022-10-05T04:27:15.653Z,4.70
2022-10-05T04:28:42.436Z,4.43
2022-10-05T04:30:09.626Z,4.60
2022-10-05T04:31:25.995Z,4.95
2022-10-05T04:32:36.730Z,5.18
2022-10-05T04:33:59.842Z,4.55
2022-10-05T04:35:26.500Z,5.40
2022-10-05T04:37:46.618Z,6.50
2022-10-05T04:38:58.968Z,5.43
2022-10-05T04:40:31.366Z,5.75
2022-10-05T04:41:56.579Z,5.35
2022-10-05T04:43:05.515Z,4.55
2022-10-05T04:44:48.255Z,5.13
2022-10-05T04:46:02.161Z,4.78
2022-10-05T04:47:27.082Z,4.28
2022-10-05T04:48:29.874Z,4.65
2022-10-05T04:49:54.477Z,3.90
2022-10-05T04:51:26.234Z,3.80
2022-10-05T04:52:45.907Z,4.40
2022-10-05T04:54:38.153Z,4.10
2022-10-05T04:56:16.110Z,4.32
2022-10-05T04:57:52.077Z,4.07
2022-10-05T04:59:15.411Z,4.05
2022-10-05T05:00:57.588Z,4.10
2022-10-05T05:02:05.866Z,4.75
2022-10-05T05:03:42.562Z,4.57
2022-10-05T05:05:09.332Z,5.15
2022-10-05T05:06:39.370Z,4.05
2022-10-05T05:08:16.714Z,4.93
2022-10-05T05:11:40.236Z,4.82
2022-10-05T05:15:43.796Z,4.97
2022-10-05T05:16:58.198Z,5.10
2022-10-05T05:18:12.997Z,5.53
2022-10-05T05:19:49.893Z,5.03
2022-10-05T05:21:04.160Z,5.03
2022-10-05T05:22:33.069Z,5.40
2022-10-05T05:23:43.676Z,5.80
2022-10-05T05:25:04.677Z,6.25
2022-10-05T05:26:38.999Z,5.72
2022-10-05T05:30:23.157Z,6.03
2022-10-05T05:32:17.349Z,6.85
2022-10-05T05:36:40.570Z,6.38
2022-10-05T05:41:06.155Z,7.55
2022-10-05T05:52:27.697Z,8.57
2022-10-05T05:53:52.150Z,8.57
2022-10-05T05:56:09.980Z,9.88
2022-10-05T05:57:28.288Z,9.15
2022-10-05T06:01:33.226Z,9.98
2022-10-05T06:05:26.646Z,9.25
2022-10-05T06:07:26.792Z,9.38
2022-10-05T06:11:19.959Z,9.32
2022-10-05T06:18:38.967Z,10.27
2022-10-05T06:22:42.659Z,9.70
2022-10-05T06:24:31.603Z,10.40
2022-10-05T06:26:22.520Z,10.70
2022-10-05T06:32:06.775Z,10.30
2022-10-05T06:36:02.005Z,11.30
2022-10-05T06:37:16.162Z,10.82
2022-10-05T06:38:55.990Z,10.88
2022-10-05T06:40:22.459Z,12.02
2022-10-05T06:42:00.639Z,10.70
2022-10-05T06:43:24.434Z,12.40
2022-10-05T06:44:45.307Z,12.25
2022-10-05T06:46:28.388Z,12.20
2022-10-05T06:47:54.077Z,11.55
2022-10-05T06:49:30.484Z,11.43
2022-10-05T06:50:42.665Z,11.48
2022-10-05T06:52:23.511Z,12.43
2022-10-05T06:53:32.880Z,12.00
2022-10-05T06:57:52.644Z,11.85
2022-10-05T07:02:06.414Z,11.93
2022-10-05T07:03:36.476Z,12.18
2022-10-05T07:05:10.847Z,11.32
2022-10-05T07:06:40.485Z,11.57
2022-10-05T07:07:54.633Z,11.82
2022-10-05T07:09:23.121Z,10.90
2022-10-05T07:11:18.607Z,12.32
2022-10-05T07:12:57.957Z,11.93
2022-10-05T07:14:59.348Z,10.68
2022-10-05T07:16:16.907Z,11.32
2022-10-05T07:17:37.473Z,11.40
2022-10-05T07:18:54.543Z,11.43
2022-10-05T07:20:20.514Z,11.07
2022-10-05T07:21:42.085Z,10.50
2022-10-05T07:23:05.344Z,10.45
2022-10-05T07:24:27.399Z,10.20
2022-10-05T07:25:36.744Z,11.13
2022-10-05T07:26:46.542Z,9.93
2022-10-05T07:27:57.363Z,10.98
2022-10-05T07:29:08.176Z,11.82
2022-10-05T07:30:13.596Z,10.45
2022-10-05T07:31:33.367Z,10.68
2022-10-05T07:32:36.651Z,10.73
2022-10-05T07:33:55.127Z,10.02
2022-10-05T07:35:53.427Z,11.10
2022-10-05T07:37:26.245Z,10.80
2022-10-05T07:38:58.924Z,10.38
2022-10-05T07:40:24.814Z,10.23
2022-10-05T07:41:36.003Z,10.68
2022-10-05T07:44:15.118Z,10.15
2022-10-05T07:45:31.988Z,11.13
2022-10-05T07:46:54.307Z,9.80
2022-10-05T07:48:11.501Z,10.07
2022-10-05T07:49:26.420Z,9.52
2022-10-05T07:50:55.164Z,9.75
2022-10-05T07:52:09.789Z,9.93
2022-10-05T07:53:21.249Z,9.82
2022-10-05T07:54:30.420Z,9.88
2022-10-05T07:55:39.276Z,10.63
2022-10-05T07:56:48.672Z,9.77
2022-10-05T07:58:09.952Z,10.23
2022-10-05T07:59:49.093Z,10.63
2022-10-05T08:01:06.012Z,9.88
2022-10-05T08:02:44.629Z,10.98
2022-10-05T08:03:56.839Z,10.20
2022-10-05T08:05:11.677Z,9.48
2022-10-05T08:06:49.706Z,9.13
2022-10-05T08:08:19.590Z,9.82
2022-10-05T08:09:47.375Z,12.63
2022-10-05T08:11:02.292Z,9.75
2022-10-05T08:12:16.731Z,11.02
2022-10-05T08:13:44.559Z,8.52
2022-10-05T08:15:11.229Z,9.00
2022-10-05T08:16:13.990Z,9.93
2022-10-05T08:17:57.437Z,8.90
2022-10-05T08:19:55.079Z,9.55
2022-10-05T08:20:58.721Z,8.80
2022-10-05T08:22:19.612Z,8.27
2022-10-05T08:23:39.296Z,8.40
2022-10-05T08:25:05.272Z,8.65
2022-10-05T08:30:02.532Z,8.07
2022-10-05T08:31:22.547Z,9.10
2022-10-05T08:33:21.682Z,8.48
2022-10-05T08:36:17.904Z,9.63
2022-10-05T08:37:37.780Z,9.55
2022-10-05T08:38:49.777Z,10.07
2022-10-05T08:40:18.971Z,10.95
2022-10-05T08:41:56.417Z,12.13
2022-10-05T08:46:56.279Z,8.65
2022-10-05T08:51:20.213Z,7.75
2022-10-05T08:52:34.063Z,8.10
2022-10-05T08:54:26.043Z,7.97
2022-10-05T08:56:06.910Z,7.72
2022-10-05T08:57:34.753Z,7.18
2022-10-05T08:59:05.473Z,7.45
2022-10-05T09:00:58.874Z,6.75
2022-10-05T09:08:55.840Z,7.32
2022-10-05T09:11:00.207Z,7.50
2022-10-05T09:12:46.736Z,7.28
2022-10-05T09:14:29.273Z,6.50
2022-10-05T09:16:24.965Z,7.20
2022-10-05T09:17:40.899Z,7.68
2022-10-05T09:20:30.539Z,7.38
2022-10-05T09:22:30.665Z,7.78
2022-10-05T09:26:29.910Z,7.22
2022-10-05T09:27:44.238Z,7.70
2022-10-05T09:28:49.271Z,7.55
2022-10-05T09:29:54.980Z,8.07
2022-10-05T09:31:08.110Z,7.70
2022-10-05T09:33:01.683Z,7.57
2022-10-05T09:34:50.946Z,7.80
2022-10-05T09:36:54.866Z,8.00
2022-10-05T09:38:39.802Z,7.43
2022-10-05T09:40:29.744Z,8.50
2022-10-05T09:42:12.811Z,7.82
2022-10-05T09:43:18.044Z,7.00
2022-10-05T09:44:46.411Z,8.55
2022-10-05T09:46:32.851Z,7.70
2022-10-05T09:48:02.993Z,7.50
2022-10-05T09:49:33.913Z,8.23
2022-10-05T09:50:41.234Z,8.07
2022-10-05T09:51:58.699Z,8.48
2022-10-05T09:53:41.198Z,7.00
2022-10-05T09:55:06.306Z,8.05
2022-10-05T09:56:23.005Z,7.40
2022-10-05T09:57:40.154Z,7.13
2022-10-05T09:59:06.717Z,7.85
2022-10-05T10:00:24.217Z,8.40
2022-10-05T10:01:56.749Z,7.70
2022-10-05T10:03:19.234Z,8.05
2022-10-05T10:05:05.998Z,7.78
2022-10-05T10:06:47.657Z,7.15
2022-10-05T10:08:15.053Z,7.15
2022-10-05T10:09:35.172Z,7.88
2022-10-05T10:10:56.909Z,7.05
2022-10-05T10:12:07.189Z,7.78
2022-10-05T10:13:46.846Z,7.65
2022-10-05T10:15:10.388Z,6.97
2022-10-05T10:16:33.509Z,7.30
2022-10-05T10:18:02.139Z,6.28
2022-10-05T10:19:30.586Z,7.18
2022-10-05T10:20:58.037Z,6.35
2022-10-05T10:22:42.950Z,6.03
2022-10-05T10:24:04.244Z,6.35
2022-10-05T10:25:41.367Z,6.50
2022-10-05T10:27:15.838Z,6.20
2022-10-05T10:28:54.082Z,6.07
2022-10-05T10:30:36.397Z,6.57
2022-10-05T10:31:56.991Z,5.68
2022-10-05T10:33:23.882Z,5.50
2022-10-05T10:34:42.923Z,5.80
2022-10-05T10:40:05.291Z,5.78
2022-10-05T10:41:58.023Z,5.60
2022-10-05T10:42:59.959Z,6.03
2022-10-05T10:44:39.016Z,6.07
2022-10-05T10:46:00.613Z,5.40
2022-10-05T10:47:27.547Z,5.53
2022-10-05T10:48:29.460Z,5.20
2022-10-05T10:50:01.041Z,5.55
2022-10-05T10:52:54.437Z,5.10
2022-10-05T10:54:18.298Z,5.22
2022-10-05T10:55:36.949Z,5.70
2022-10-05T10:56:55.789Z,5.22
2022-10-05T10:58:32.190Z,5.15
2022-10-05T10:59:55.656Z,6.05
2022-10-05T11:01:05.654Z,5.78
2022-10-05T11:02:37.637Z,6.50
2022-10-05T11:04:23.199Z,5.50
2022-10-05T11:05:38.107Z,6.43
2022-10-05T11:06:43.118Z,5.97
2022-10-05T11:08:06.563Z,6.28
2022-10-05T11:09:34.057Z,6.00
2022-10-05T11:11:08.043Z,6.50
2022-10-05T11:12:34.581Z,5.40
2022-10-05T11:13:43.309Z,5.90
2022-10-05T11:14:59.214Z,5.90
2022-10-05T11:16:49.037Z,6.20
2022-10-05T11:18:09.562Z,6.22
2022-10-05T11:19:35.186Z,6.47
2022-10-05T11:21:02.890Z,5.82
2022-10-05T11:22:17.662Z,5.68
2022-10-05T11:23:45.954Z,6.43
2022-10-05T11:25:15.515Z,6.68
2022-10-05T11:26:57.920Z,6.03
2022-10-05T11:28:24.049Z,6.53
2022-10-05T11:29:59.545Z,7.38
2022-10-05T11:31:32.283Z,6.03
2022-10-05T11:33:16.318Z,5.82
2022-10-05T11:34:40.022Z,6.30
2022-10-05T11:35:58.904Z,6.40
2022-10-05T11:37:10.608Z,6.60
2022-10-05T11:38:46.325Z,6.10
2022-10-05T11:40:26.010Z,6.05
2022-10-05T11:41:55.769Z,5.40
2022-10-05T11:43:19.724Z,5.90
2022-10-05T11:44:23.196Z,4.88
2022-10-05T11:46:01.964Z,5.78
2022-10-05T11:47:26.436Z,5.47
2022-10-05T11:48:42.344Z,5.70
2022-10-05T11:50:11.630Z,5.80
2022-10-05T11:51:37.779Z,5.82
2022-10-05T11:52:54.274Z,5.13
2022-10-05T11:54:58.738Z,6.07
2022-10-05T11:56:17.699Z,5.80
2022-10-05T11:57:41.492Z,5.60
2022-10-05T11:59:13.517Z,5.63
2022-10-05T12:02:04.841Z,5.53
2022-10-05T12:03:48.378Z,6.18
2022-10-05T12:05:22.118Z,5.93
2022-10-05T12:07:10.660Z,5.65
2022-10-05T12:09:03.338Z,6.78
2022-10-05T12:10:42.666Z,5.47
2022-10-05T12:12:00.030Z,5.65
2022-10-05T12:13:07.365Z,5.45
2022-10-05T12:14:23.824Z,5.05
2022-10-05T12:15:48.658Z,5.55
2022-10-05T12:17:24.215Z,5.13
2022-10-05T12:18:34.839Z,6.28
2022-10-05T12:20:12.236Z,6.82
2022-10-05T12:21:37.468Z,5.72
2022-10-05T12:22:53.209Z,6.30
2022-10-05T12:25:31.907Z,6.00
2022-10-05T12:27:01.499Z,5.63
2022-10-05T12:28:13.541Z,5.35
2022-10-05T12:29:39.717Z,6.60
2022-10-05T12:30:53.595Z,6.25
2022-10-05T12:32:11.684Z,5.72
2022-10-05T12:33:18.610Z,5.90
2022-10-05T12:34:50.481Z,5.85
2022-10-05T12:36:07.343Z,5.85
2022-10-05T12:37:43.668Z,5.38
2022-10-05T12:38:59.178Z,5.63
2022-10-05T12:40:19.615Z,5.30
2022-10-05T12:41:56.526Z,5.87
2022-10-05T12:43:36.972Z,5.97
2022-10-05T12:45:16.658Z,5.72
2022-10-05T12:46:48.232Z,5.90
2022-10-05T12:48:27.582Z,6.82
2022-10-05T12:49:48.212Z,6.53
2022-10-05T12:50:55.472Z,6.00
2022-10-05T12:52:07.765Z,6.68
2022-10-05T12:53:33.234Z,6.22
2022-10-05T12:55:00.505Z,5.45
2022-10-05T12:56:10.835Z,6.68
2022-10-05T12:59:54.923Z,6.45
2022-10-05T13:02:32.969Z,5.88
2022-10-05T13:03:40.254Z,6.30
2022-10-05T13:04:52.341Z,6.28
2022-10-05T13:06:09.775Z,6.40
2022-10-05T13:07:25.323Z,6.10
2022-10-05T13:08:36.384Z,7.15
2022-10-05T13:11:05.806Z,6.35
2022-10-05T13:12:24.210Z,6.35
2022-10-05T13:13:51.291Z,6.53
2022-10-05T13:15:08.223Z,6.45
2022-10-05T13:16:38.620Z,6.57
2022-10-05T13:17:58.135Z,6.50
2022-10-05T13:19:37.126Z,5.93
2022-10-05T13:20:42.142Z,6.90
2022-10-05T13:21:49.696Z,6.47
2022-10-05T13:23:07.612Z,6.70
2022-10-05T13:24:20.717Z,6.68
2022-10-05T13:26:09.014Z,6.28
2022-10-05T13:27:22.074Z,6.88
2022-10-05T13:28:37.269Z,6.93
2022-10-05T13:29:54.225Z,6.82
2022-10-05T13:31:21.638Z,7.30
2022-10-05T13:32:40.648Z,6.80
2022-10-05T13:33:57.267Z,7.60
2022-10-05T13:35:17.666Z,6.53
2022-10-05T13:36:46.328Z,6.85
2022-10-05T13:38:16.912Z,6.47
2022-10-05T13:39:42.719Z,6.82
2022-10-05T13:40:59.793Z,7.07
2022-10-05T13:42:26.190Z,7.35
2022-10-05T13:44:05.554Z,7.22
2022-10-05T13:45:20.380Z,7.43
2022-10-05T13:46:34.335Z,7.93
2022-10-05T13:47:53.669Z,6.93
2022-10-05T13:49:37.595Z,7.40
2022-10-05T13:50:52.397Z,7.60
2022-10-05T13:52:06.800Z,7.13
2022-10-05T13:53:25.257Z,6.80
2022-10-05T13:54:42.823Z,7.97
2022-10-05T13:55:58.691Z,7.18
2022-10-05T13:57:12.170Z,7.40
2022-10-05T13:58:41.269Z,7.55
2022-10-05T14:00:06.939Z,6.93
2022-10-05T14:01:50.879Z,8.07
2022-10-05T14:03:47.122Z,7.57
2022-10-05T14:05:01.710Z,7.05
2022-10-05T14:06:18.340Z,7.47
2022-10-05T14:07:36.412Z,8.20
2022-10-05T14:09:14.187Z,8.38
2022-10-05T14:10:46.435Z,8.43
2022-10-05T14:12:05.616Z,8.02
2022-10-05T14:13:26.869Z,7.47
2022-10-05T14:14:31.695Z,7.55
2022-10-05T14:15:42.001Z,8.35
2022-10-05T14:17:13.283Z,7.43
2022-10-05T14:18:30.988Z,7.13
2022-10-05T14:19:43.361Z,7.32
2022-10-05T14:21:00.457Z,8.32
2022-10-05T14:22:13.490Z,8.52
2022-10-05T14:23:24.833Z,7.57
2022-10-05T14:24:44.131Z,8.07
2022-10-05T14:25:54.039Z,8.13
2022-10-05T14:26:58.047Z,8.85
2022-10-05T14:28:24.097Z,8.63
2022-10-05T14:29:38.251Z,8.02
2022-10-05T14:30:40.666Z,8.35
2022-10-05T14:31:55.478Z,7.97
2022-10-05T14:33:06.269Z,8.32
2022-10-05T14:34:36.218Z,8.30
2022-10-05T14:35:50.240Z,7.63
2022-10-05T14:37:01.551Z,9.13
2022-10-05T14:38:18.182Z,9.00
2022-10-05T14:39:25.609Z,10.73
2022-10-05T14:40:38.885Z,10.77
2022-10-05T14:41:49.453Z,10.50
2022-10-05T14:42:51.863Z,9.85
2022-10-05T14:44:05.383Z,9.18
2022-10-05T14:45:16.008Z,9.07
2022-10-05T14:46:21.829Z,8.80
2022-10-05T14:47:30.720Z,9.05
2022-10-05T14:48:42.796Z,8.18
2022-10-05T14:50:14.097Z,9.18
2022-10-05T14:51:28.373Z,8.38
2022-10-05T14:52:34.746Z,9.45
2022-10-05T14:53:58.064Z,10.02
2022-10-05T14:55:08.477Z,9.23
2022-10-05T14:56:37.621Z,8.80
2022-10-05T14:58:05.904Z,9.02
2022-10-05T14:59:47.501Z,8.90
2022-10-05T15:01:11.306Z,8.20
2022-10-05T15:02:44.991Z,9.07
2022-10-05T15:04:01.820Z,8.80
2022-10-05T15:05:19.123Z,8.70
2022-10-05T15:06:29.052Z,9.07
2022-10-05T15:07:49.479Z,10.05
2022-10-05T15:09:17.417Z,9.15
2022-10-05T15:10:27.040Z,9.07
2022-10-05T15:11:42.563Z,8.15
2022-10-05T15:12:48.274Z,9.18
2022-10-05T15:13:50.431Z,10.45
2022-10-05T15:15:12.263Z,10.13
2022-10-05T15:16:29.896Z,8.50
2022-10-05T15:17:43.813Z,8.68
2022-10-05T15:19:23.909Z,8.95
2022-10-05T15:20:32.606Z,8.25
2022-10-05T15:22:13.526Z,8.75
2022-10-05T15:23:27.249Z,9.13
2022-10-05T15:24:45.887Z,9.48
2022-10-05T15:26:03.445Z,9.57
2022-10-05T15:27:06.220Z,9.73
2022-10-05T15:28:34.599Z,10.40
2022-10-05T15:30:00.662Z,9.48
2022-10-05T15:31:06.720Z,9.63
2022-10-05T15:32:42.245Z,10.35
2022-10-05T15:34:19.005Z,9.93
2022-10-05T15:35:45.361Z,9.15
2022-10-05T15:36:54.717Z,9.05
2022-10-05T15:38:09.658Z,9.57
2022-10-05T15:39:30.657Z,9.40
2022-10-05T15:40:59.178Z,9.73
2022-10-05T15:42:04.791Z,9.73
2022-10-05T15:43:23.227Z,10.60
2022-10-05T15:44:30.718Z,9.30
2022-10-05T15:45:42.076Z,10.60
2022-10-05T15:46:50.640Z,10.45
2022-10-05T15:48:01.088Z,10.13
2022-10-05T15:49:20.211Z,9.68
2022-10-05T15:50:26.848Z,9.18
2022-10-05T15:51:35.579Z,9.32
2022-10-05T15:52:44.764Z,9.70
2022-10-05T15:54:23.963Z,10.40
2022-10-05T15:55:50.224Z,9.23
2022-10-05T15:57:08.108Z,9.90
2022-10-05T15:58:40.436Z,10.40
2022-10-05T15:59:58.871Z,10.18
2022-10-05T16:01:35.477Z,9.55
2022-10-05T16:03:02.972Z,9.07
2022-10-05T16:04:11.008Z,9.50
2022-10-05T16:05:57.088Z,9.60
2022-10-05T16:07:20.635Z,9.45
2022-10-05T16:09:19.602Z,9.35
2022-10-05T16:10:24.176Z,9.30
2022-10-05T16:11:59.926Z,10.20
2022-10-05T16:13:28.369Z,9.32
2022-10-05T16:14:45.348Z,9.55
2022-10-05T16:16:12.761Z,9.52
2022-10-05T16:17:36.590Z,10.20
2022-10-05T16:18:55.013Z,10.13
2022-10-05T16:20:26.803Z,9.45
2022-10-05T16:22:02.649Z,9.88
2022-10-05T16:23:22.438Z,10.70
2022-10-05T16:25:02.896Z,10.90
2022-10-05T16:26:22.501Z,11.00
2022-10-05T16:27:32.584Z,10.35
2022-10-05T16:28:54.599Z,9.80
2022-10-05T16:30:08.635Z,10.52
2022-10-05T16:31:39.327Z,10.25
2022-10-05T16:33:08.701Z,11.50
2022-10-05T16:34:27.935Z,11.13
2022-10-05T16:35:44.364Z,11.93
2022-10-05T16:37:06.733Z,10.25
2022-10-05T16:38:25.019Z,10.45
2022-10-05T16:39:35.776Z,10.95
2022-10-05T16:41:02.460Z,11.57
2022-10-05T16:42:32.564Z,11.20
2022-10-05T16:43:53.143Z,11.75
2022-10-05T16:45:13.720Z,10.93
2022-10-05T16:46:22.363Z,13.38
2022-10-05T16:48:03.071Z,12.13
2022-10-05T16:49:13.749Z,13.38
2022-10-05T16:50:37.154Z,13.35
2022-10-05T16:51:56.421Z,13.38
2022-10-05T16:53:04.892Z,12.52
2022-10-05T16:54:29.068Z,13.57
2022-10-05T16:55:38.164Z,11.98
2022-10-05T16:56:45.254Z,13.68
2022-10-05T16:57:55.745Z,13.55
2022-10-05T16:59:41.967Z,14.32
2022-10-05T17:01:08.540Z,14.27
2022-10-05T17:02:34.310Z,13.65
2022-10-05T17:03:51.102Z,12.38
2022-10-05T17:05:14.119Z,12.05
2022-10-05T17:06:30.112Z,13.88
2022-10-05T17:07:49.464Z,14.45
2022-10-05T17:09:09.813Z,14.45
2022-10-05T17:10:50.562Z,13.02
2022-10-05T17:12:04.294Z,13.70
2022-10-05T17:13:29.718Z,13.32
2022-10-05T17:14:39.035Z,12.50
2022-10-05T17:16:00.734Z,10.75
2022-10-05T17:17:30.961Z,12.45
2022-10-05T17:19:15.288Z,14.15
2022-10-05T17:20:42.927Z,14.02
2022-10-05T17:21:57.805Z,12.30
2022-10-05T17:23:29.787Z,12.43
2022-10-05T17:24:46.663Z,11.98
2022-10-05T17:25:55.677Z,10.52
2022-10-05T17:27:19.187Z,11.50
2022-10-05T17:28:41.212Z,11.48
2022-10-05T17:29:52.542Z,11.02
2022-10-05T17:31:03.200Z,11.00
2022-10-05T17:32:34.441Z,10.93
2022-10-05T17:33:59.373Z,11.45
2022-10-05T17:35:01.083Z,11.07
2022-10-05T17:36:04.980Z,11.05
2022-10-05T17:37:26.776Z,10.43
2022-10-05T17:38:31.711Z,10.50
2022-10-05T17:39:54.258Z,11.25
2022-10-05T17:41:18.481Z,10.48
2022-10-05T17:42:26.389Z,9.15
2022-10-05T17:43:33.129Z,11.05
2022-10-05T17:44:35.440Z,10.32
2022-10-05T17:45:37.128Z,10.95
2022-10-05T17:46:45.896Z,10.50
2022-10-05T17:48:06.073Z,9.50
2022-10-05T17:49:36.774Z,10.25
2022-10-05T17:51:07.299Z,10.35
2022-10-05T17:52:39.819Z,10.40
2022-10-05T17:54:03.312Z,10.43
2022-10-05T17:55:28.276Z,9.90
2022-10-05T17:56:54.298Z,9.45
2022-10-05T17:57:59.844Z,9.30
2022-10-05T17:59:04.715Z,9.63
2022-10-05T18:00:40.822Z,10.35
2022-10-05T18:01:43.812Z,10.48
2022-10-05T18:02:45.694Z,10.35
2022-10-05T18:03:51.643Z,10.27
2022-10-05T18:05:16.128Z,10.20
2022-10-05T18:06:31.938Z,9.85
2022-10-05T18:07:40.132Z,9.88
2022-10-05T18:08:42.231Z,9.48
2022-10-05T18:09:57.626Z,10.02
2022-10-05T18:11:13.289Z,10.73
2022-10-05T18:12:16.288Z,10.40
2022-10-05T18:13:37.398Z,9.88
2022-10-05T18:15:21.467Z,10.20
2022-10-05T18:16:59.145Z,10.43
2022-10-05T18:18:33.720Z,10.23
2022-10-05T18:19:37.602Z,9.45
2022-10-05T18:21:08.595Z,11.05
2022-10-05T18:22:16.782Z,10.20
2022-10-05T18:23:25.581Z,10.38
2022-10-05T18:25:05.869Z,10.20
2022-10-05T18:26:24.329Z,12.02
2022-10-05T18:27:51.500Z,12.05
2022-10-05T18:29:14.410Z,13.10
2022-10-05T18:30:28.639Z,10.95
2022-10-05T18:32:01.269Z,10.65
2022-10-05T18:33:03.504Z,10.30
2022-10-05T18:34:35.104Z,10.55
2022-10-05T18:37:14.854Z,10.80
2022-10-05T18:38:25.971Z,9.73
2022-10-05T18:39:52.127Z,10.15
2022-10-05T18:41:12.948Z,11.05
2022-10-05T18:42:27.145Z,10.75
2022-10-05T18:43:57.712Z,10.85
2022-10-05T18:45:04.138Z,11.55
2022-10-05T18:46:28.614Z,11.13
2022-10-05T18:47:45.666Z,11.52
2022-10-05T18:48:58.753Z,9.70
2022-10-05T18:50:39.337Z,11.45
2022-10-05T18:51:51.950Z,11.25
2022-10-05T18:53:38.890Z,11.23
2022-10-05T18:55:18.760Z,13.05
2022-10-05T18:56:36.084Z,12.90
2022-10-05T18:58:05.012Z,13.18
2022-10-05T18:59:18.526Z,14.70
2022-10-05T19:00:23.867Z,14.00
2022-10-05T19:01:55.888Z,12.35
2022-10-05T19:03:06.588Z,13.23
2022-10-05T19:04:36.485Z,11.75
2022-10-05T19:06:13.235Z,12.55
2022-10-05T19:07:42.126Z,11.07
2022-10-05T19:08:59.874Z,10.93
2022-10-05T19:10:21.636Z,11.35
2022-10-05T19:11:40.840Z,11.60
2022-10-05T19:13:08.952Z,12.05
2022-10-05T19:14:40.022Z,11.50
2022-10-05T19:16:23.870Z,10.60
2022-10-05T19:17:50.586Z,11.85
2022-10-05T19:19:29.505Z,12.77
2022-10-05T19:20:52.124Z,11.63
2022-10-05T19:22:10.868Z,11.45
2022-10-05T19:23:50.711Z,11.48
2022-10-05T19:25:21.205Z,12.18
2022-10-05T19:27:01.495Z,11.88
2022-10-05T19:28:22.275Z,12.65
2022-10-05T19:30:00.147Z,11.80
2022-10-05T19:31:05.583Z,12.18
2022-10-05T19:32:21.758Z,13.55
2022-10-05T19:33:54.776Z,13.50
2022-10-05T19:35:09.145Z,11.93
2022-10-05T19:36:25.671Z,13.90
2022-10-05T19:37:43.404Z,15.23
2022-10-05T19:39:10.006Z,15.20
2022-10-05T19:40:34.207Z,13.88